createdAt,value
2022-08-09T00:01:10.693Z,2.35
2022-08-09T00:04:10.861Z,2.10
2022-08-09T00:06:29.025Z,2.50
2022-08-09T00:08:58.832Z,2.38
2022-08-09T00:11:27.715Z,2.38
2022-08-09T00:14:12.664Z,2.15
2022-08-09T00:16:49.103Z,2.17
2022-08-09T00:19:18.456Z,2.72
2022-08-09T00:21:55.813Z,2.38
2022-08-09T00:24:24.241Z,2.30
2022-08-09T00:26:51.020Z,2.58
2022-08-09T00:29:39.134Z,2.70
2022-08-09T00:32:05.836Z,2.50
2022-08-09T00:34:33.499Z,2.47
2022-08-09T00:37:00.321Z,2.47
2022-08-09T00:40:09.534Z,2.28
2022-08-09T00:44:16.132Z,2.40
2022-08-09T00:45:03.839Z,2.63
2022-08-09T00:47:42.960Z,2.42
2022-08-09T00:50:14.278Z,2.50
2022-08-09T00:52:41.691Z,2.33
2022-08-09T00:55:08.931Z,2.35
2022-08-09T00:57:43.486Z,2.17
2022-08-09T01:00:22.029Z,2.50
2022-08-09T01:03:02.165Z,2.90
2022-08-09T01:05:46.473Z,2.70
2022-08-09T01:08:33.186Z,2.90
2022-08-09T01:11:09.423Z,2.53
2022-08-09T01:13:58.768Z,2.45
2022-08-09T01:16:28.573Z,2.70
2022-08-09T01:19:02.567Z,2.05
2022-08-09T01:21:51.288Z,2.38
2022-08-09T01:24:35.696Z,2.65
2022-08-09T01:27:29.162Z,2.22
2022-08-09T01:29:59.390Z,2.58
2022-08-09T01:32:34.221Z,2.80
2022-08-09T01:35:37.346Z,2.30
2022-08-09T01:38:09.953Z,2.72
2022-08-09T01:40:39.500Z,2.58
2022-08-09T01:43:06.595Z,2.78
2022-08-09T01:45:33.416Z,2.67
2022-08-09T01:48:02.169Z,2.88
2022-08-09T01:50:37.038Z,2.67
2022-08-09T01:53:19.517Z,2.80
2022-08-09T01:55:47.083Z,2.70
2022-08-09T01:58:14.169Z,2.65
2022-08-09T02:00:42.171Z,2.80
2022-08-09T02:03:13.898Z,2.70
2022-08-09T02:06:03.259Z,2.70
2022-08-09T02:08:35.079Z,2.80
2022-08-09T02:11:16.716Z,3.10
2022-08-09T02:13:44.162Z,2.75
2022-08-09T02:16:35.435Z,2.58
2022-08-09T02:19:20.457Z,2.75
2022-08-09T02:21:50.045Z,2.72
2022-08-09T02:24:26.349Z,2.63
2022-08-09T02:26:54.658Z,2.83
2022-08-09T02:29:23.520Z,2.50
2022-08-09T02:31:50.462Z,2.72
2022-08-09T02:34:40.238Z,2.88
2022-08-09T02:37:07.894Z,3.03
2022-08-09T02:39:42.629Z,2.80
2022-08-09T02:42:16.847Z,2.90
2022-08-09T02:44:52.987Z,2.80
2022-08-09T02:47:21.151Z,2.80
2022-08-09T02:49:55.544Z,2.70
2022-08-09T02:52:36.679Z,3.10
2022-08-09T02:55:15.191Z,3.17
2022-08-09T02:58:00.201Z,2.80
2022-08-09T03:00:34.843Z,2.90
2022-08-09T03:03:06.311Z,2.65
2022-08-09T03:05:35.022Z,3.25
2022-08-09T03:08:03.201Z,2.88
2022-08-09T03:10:30.291Z,2.85
2022-08-09T03:12:57.477Z,3.00
2022-08-09T03:15:25.785Z,2.80
2022-08-09T03:18:12.895Z,3.03
2022-08-09T03:20:39.973Z,3.08
2022-08-09T03:23:14.711Z,3.00
2022-08-09T03:25:57.964Z,3.40
2022-08-09T03:28:26.631Z,2.70
2022-08-09T03:30:54.783Z,3.33
2022-08-09T03:33:22.282Z,2.90
2022-08-09T03:36:14.095Z,2.88
2022-08-09T03:38:41.641Z,3.25
2022-08-09T03:41:09.772Z,3.20
2022-08-09T03:43:42.831Z,2.95
2022-08-09T03:46:30.246Z,3.15
2022-08-09T03:48:58.512Z,3.45
2022-08-09T03:51:57.089Z,3.33
2022-08-09T03:54:14.067Z,3.22
2022-08-09T03:56:41.809Z,3.08
2022-08-09T03:59:13.668Z,3.35
2022-08-09T04:01:47.794Z,2.90
2022-08-09T04:04:15.368Z,3.53
2022-08-09T04:06:43.992Z,3.10
2022-08-09T04:09:48.214Z,3.05
2022-08-09T04:12:06.453Z,2.92
2022-08-09T04:15:01.164Z,3.20
2022-08-09T04:17:27.077Z,2.92
2022-08-09T04:19:56.764Z,3.65
2022-08-09T04:22:23.923Z,2.70
2022-08-09T04:24:55.002Z,3.20
2022-08-09T04:27:22.498Z,3.10
2022-08-09T04:29:50.458Z,3.08
2022-08-09T04:32:23.752Z,3.03
2022-08-09T04:35:01.323Z,3.58
2022-08-09T04:37:45.407Z,3.70
2022-08-09T04:40:28.533Z,3.70
2022-08-09T04:42:56.779Z,3.55
2022-08-09T04:45:24.119Z,3.50
2022-08-09T04:48:00.112Z,3.05
2022-08-09T04:50:31.863Z,3.00
2022-08-09T04:53:02.495Z,3.55
2022-08-09T04:55:41.040Z,3.15
2022-08-09T04:58:18.029Z,3.00
2022-08-09T05:00:45.347Z,4.93
2022-08-09T05:03:41.226Z,6.13
2022-08-09T05:06:06.997Z,5.97
2022-08-09T05:08:35.189Z,4.10
2022-08-09T05:11:02.667Z,3.38
2022-08-09T05:13:33.111Z,3.40
2022-08-09T05:16:01.039Z,2.95
2022-08-09T05:18:38.836Z,3.30
2022-08-09T05:21:22.713Z,3.08
2022-08-09T05:23:57.950Z,3.00
2022-08-09T05:26:35.950Z,2.85
2022-08-09T05:29:17.579Z,3.30
2022-08-09T05:31:56.451Z,2.97
2022-08-09T05:34:29.978Z,3.03
2022-08-09T05:36:58.949Z,3.20
2022-08-09T05:39:36.128Z,3.40
2022-08-09T05:42:10.194Z,3.00
2022-08-09T05:44:45.241Z,2.63
2022-08-09T05:47:17.598Z,2.90
2022-08-09T05:50:23.548Z,4.68
2022-08-09T05:52:32.005Z,2.85
2022-08-09T05:55:06.697Z,3.38
2022-08-09T05:57:51.022Z,3.10
2022-08-09T06:00:25.102Z,3.15
2022-08-09T06:02:54.172Z,3.25
2022-08-09T06:05:31.041Z,3.00
2022-08-09T06:08:09.150Z,3.08
2022-08-09T06:10:38.126Z,3.40
2022-08-09T06:13:12.148Z,2.97
2022-08-09T06:15:40.079Z,3.20
2022-08-09T06:18:09.267Z,3.22
2022-08-09T06:20:39.076Z,3.00
2022-08-09T06:23:06.279Z,3.00
2022-08-09T06:25:39.171Z,3.20
2022-08-09T06:28:10.402Z,2.92
2022-08-09T06:30:43.451Z,2.63
2022-08-09T06:33:39.534Z,2.40
2022-08-09T06:35:58.648Z,3.10
2022-08-09T06:38:36.306Z,3.13
2022-08-09T06:41:13.481Z,3.00
2022-08-09T06:43:46.495Z,3.42
2022-08-09T06:46:39.800Z,2.10
2022-08-09T06:49:00.726Z,2.10
2022-08-09T06:51:28.143Z,2.33
2022-08-09T06:53:55.461Z,2.50
2022-08-09T06:56:30.815Z,2.60
2022-08-09T07:00:54.686Z,2.50
2022-08-09T07:01:54.266Z,2.15
2022-08-09T07:04:26.944Z,2.40
2022-08-09T07:07:00.190Z,2.55
2022-08-09T07:09:55.582Z,2.08
2022-08-09T07:12:18.147Z,2.13
2022-08-09T07:14:45.922Z,2.28
2022-08-09T07:17:18.627Z,2.95
2022-08-09T07:19:48.194Z,2.42
2022-08-09T07:22:18.712Z,2.38
2022-08-09T07:25:01.652Z,2.08
2022-08-09T07:27:33.986Z,1.80
2022-08-09T07:30:01.793Z,2.22
2022-08-09T07:32:32.951Z,1.92
2022-08-09T07:35:10.662Z,2.05
2022-08-09T07:37:42.918Z,2.53
2022-08-09T07:40:12.873Z,1.80
2022-08-09T07:42:50.248Z,2.15
2022-08-09T07:45:36.945Z,2.40
2022-08-09T07:48:05.020Z,1.67
2022-08-09T07:50:34.709Z,2.00
2022-08-09T07:53:04.653Z,2.33
2022-08-09T07:55:41.240Z,1.83
2022-08-09T07:58:21.616Z,2.40
2022-08-09T08:00:56.202Z,1.70
2022-08-09T08:03:33.510Z,1.90
2022-08-09T08:06:04.319Z,1.55
2022-08-09T08:08:59.781Z,1.67
2022-08-09T08:12:10.670Z,1.38
2022-08-09T08:14:06.354Z,1.92
2022-08-09T08:16:34.603Z,1.80
2022-08-09T08:19:02.631Z,1.48
2022-08-09T08:21:30.606Z,1.70
2022-08-09T08:24:00.902Z,1.88
2022-08-09T08:26:41.968Z,1.42
2022-08-09T08:29:20.426Z,1.55
2022-08-09T08:32:04.285Z,1.50
2022-08-09T08:34:33.546Z,1.45
2022-08-09T08:37:01.707Z,1.45
2022-08-09T08:39:29.213Z,1.60
2022-08-09T08:42:05.460Z,1.38
2022-08-09T08:44:36.040Z,1.40
2022-08-09T08:47:12.493Z,1.30
2022-08-09T08:49:47.989Z,1.40
2022-08-09T08:52:50.327Z,1.30
2022-08-09T08:55:05.660Z,1.52
2022-08-09T08:57:35.387Z,1.50
2022-08-09T09:00:03.569Z,1.30
2022-08-09T09:02:40.532Z,1.10
2022-08-09T09:05:09.919Z,1.30
2022-08-09T09:07:42.318Z,1.40
2022-08-09T09:10:10.231Z,1.23
2022-08-09T09:12:38.039Z,1.10
2022-08-09T09:15:06.266Z,1.13
2022-08-09T09:17:48.308Z,1.00
2022-08-09T09:20:20.661Z,1.17
2022-08-09T09:22:52.567Z,1.00
2022-08-09T09:26:04.439Z,1.10
2022-08-09T09:28:38.930Z,1.10
2022-08-09T09:31:07.244Z,1.10
2022-08-09T09:33:45.271Z,1.20
2022-08-09T09:36:20.384Z,1.20
2022-08-09T09:38:58.122Z,1.30
2022-08-09T09:41:32.957Z,2.80
2022-08-09T09:44:12.222Z,1.05
2022-08-09T09:46:50.725Z,1.20
2022-08-09T09:49:31.906Z,1.50
2022-08-09T09:52:33.552Z,1.30
2022-08-09T09:55:16.379Z,1.50
2022-08-09T09:58:16.557Z,1.40
2022-08-09T10:00:59.007Z,1.20
2022-08-09T10:03:39.915Z,1.10
2022-08-09T10:06:07.210Z,1.02
2022-08-09T10:08:54.181Z,1.00
2022-08-09T10:12:00.557Z,1.30
2022-08-09T10:14:27.508Z,1.00
2022-08-09T10:17:05.376Z,1.45
2022-08-09T10:19:45.905Z,1.08
2022-08-09T10:22:13.095Z,1.27
2022-08-09T10:24:40.975Z,1.65
2022-08-09T10:27:10.241Z,1.40
2022-08-09T10:30:22.134Z,1.40
2022-08-09T10:32:50.396Z,1.30
2022-08-09T10:35:17.696Z,1.00
2022-08-09T10:37:47.430Z,1.02
2022-08-09T10:40:33.239Z,1.00
2022-08-09T10:43:03.508Z,1.00
2022-08-09T10:45:31.948Z,1.30
2022-08-09T10:48:29.913Z,1.17
2022-08-09T10:51:09.293Z,1.35
2022-08-09T10:53:55.165Z,1.20
2022-08-09T10:56:25.965Z,1.10
2022-08-09T10:58:54.054Z,1.10
2022-08-09T11:03:14.276Z,1.27
2022-08-09T11:04:30.289Z,1.00
2022-08-09T11:06:59.562Z,1.20
2022-08-09T11:11:58.702Z,1.20
2022-08-09T11:14:31.878Z,1.00
2022-08-09T11:16:59.247Z,1.23
2022-08-09T11:20:12.435Z,1.10
2022-08-09T11:22:44.818Z,1.33
2022-08-09T11:25:12.108Z,1.63
2022-08-09T11:27:52.901Z,1.02
2022-08-09T11:33:01.374Z,0.90
2022-08-09T11:35:35.232Z,1.20
2022-08-09T11:38:32.221Z,1.30
2022-08-09T11:41:06.358Z,1.25
2022-08-09T11:43:37.420Z,1.20
2022-08-09T11:46:06.161Z,1.10
2022-08-09T11:48:33.943Z,1.17
2022-08-09T11:51:37.966Z,1.08
2022-08-09T11:54:13.452Z,1.10
2022-08-09T11:56:47.710Z,1.20
2022-08-09T11:59:30.327Z,1.10
2022-08-09T12:02:16.290Z,1.20
2022-08-09T12:04:46.164Z,1.20
2022-08-09T12:07:14.243Z,1.25
2022-08-09T12:12:28.502Z,0.93
2022-08-09T12:15:07.794Z,1.10
2022-08-09T12:17:43.611Z,1.40
2022-08-09T12:20:21.703Z,1.00
2022-08-09T12:22:50.583Z,1.10
2022-08-09T12:25:36.060Z,0.95
2022-08-09T12:29:14.401Z,1.00
2022-08-09T12:31:57.862Z,0.88
2022-08-09T12:34:31.841Z,1.05
2022-08-09T12:37:21.584Z,1.20
2022-08-09T12:40:21.053Z,1.08
2022-08-09T12:42:50.576Z,1.15
2022-08-09T12:45:33.821Z,1.00
2022-08-09T12:48:04.334Z,1.10
2022-08-09T12:50:31.745Z,1.00
2022-08-09T12:53:18.152Z,1.05
2022-08-09T12:56:15.250Z,0.90
2022-08-09T12:58:33.935Z,1.05
2022-08-09T13:01:04.707Z,0.90
2022-08-09T13:03:58.469Z,1.08
2022-08-09T13:06:34.613Z,1.05
2022-08-09T13:09:06.255Z,1.00
2022-08-09T13:11:34.095Z,1.00
2022-08-09T13:14:42.182Z,1.10
2022-08-09T13:16:49.771Z,1.10
2022-08-09T13:20:08.355Z,1.00
2022-08-09T13:22:37.764Z,1.10
2022-08-09T13:25:12.113Z,1.00
2022-08-09T13:27:48.669Z,1.20
2022-08-09T13:30:50.735Z,0.90
2022-08-09T13:33:11.725Z,1.20
2022-08-09T13:36:38.768Z,0.82
2022-08-09T13:38:54.168Z,0.95
2022-08-09T13:41:58.792Z,1.13
2022-08-09T13:44:09.015Z,1.10
2022-08-09T13:47:13.058Z,0.88
2022-08-09T13:49:38.105Z,1.13
2022-08-09T13:52:09.314Z,1.00
2022-08-09T13:54:41.675Z,0.90
2022-08-09T13:57:35.662Z,1.25
2022-08-09T14:00:04.378Z,1.08
2022-08-09T14:02:31.456Z,0.90
2022-08-09T14:05:03.393Z,0.90
2022-08-09T14:07:42.205Z,1.02
2022-08-09T14:10:17.268Z,0.90
2022-08-09T14:12:56.219Z,1.17
2022-08-09T14:16:10.604Z,1.00
2022-08-09T14:18:19.753Z,1.10
2022-08-09T14:20:56.499Z,0.90
2022-08-09T14:23:40.123Z,1.05
2022-08-09T14:26:10.712Z,1.15
2022-08-09T14:28:38.134Z,1.08
2022-08-09T14:31:05.191Z,1.02
2022-08-09T14:33:38.211Z,1.10
2022-08-09T14:36:20.515Z,0.95
2022-08-09T14:38:52.925Z,0.80
2022-08-09T14:41:34.850Z,0.82
2022-08-09T14:44:06.692Z,1.15
2022-08-09T14:46:54.022Z,1.17
2022-08-09T14:49:25.060Z,0.88
2022-08-09T14:51:58.203Z,1.13
2022-08-09T14:54:28.166Z,1.05
2022-08-09T14:56:58.724Z,1.33
2022-08-09T14:59:27.376Z,1.00
2022-08-09T15:01:55.780Z,1.10
2022-08-09T15:04:23.318Z,1.00
2022-08-09T15:06:51.346Z,1.30
2022-08-09T15:10:03.904Z,1.30
2022-08-09T15:12:08.065Z,1.10
2022-08-09T15:14:38.540Z,1.20
2022-08-09T15:17:09.022Z,1.27
2022-08-09T15:19:36.839Z,1.20
2022-08-09T15:22:05.524Z,0.95
2022-08-09T15:24:32.733Z,1.20
2022-08-09T15:26:59.871Z,1.20
2022-08-09T15:30:59.385Z,1.10
2022-08-09T15:32:29.933Z,1.08
2022-08-09T15:35:01.984Z,1.02
2022-08-09T15:37:57.103Z,1.10
2022-08-09T15:40:34.250Z,1.00
2022-08-09T15:43:01.852Z,1.73
2022-08-09T15:45:30.112Z,1.67
2022-08-09T15:48:05.238Z,1.30
2022-08-09T15:50:44.035Z,1.40
2022-08-09T15:53:32.639Z,1.15
2022-08-09T15:58:46.429Z,1.40
2022-08-09T16:01:13.748Z,1.15
2022-08-09T16:03:41.715Z,1.70
2022-08-09T16:06:27.409Z,1.38
2022-08-09T16:08:56.710Z,1.10
2022-08-09T16:11:30.965Z,1.27
2022-08-09T16:14:03.806Z,1.05
2022-08-09T16:16:33.177Z,1.70
2022-08-09T16:19:01.852Z,1.80
2022-08-09T16:21:31.628Z,1.30
2022-08-09T16:24:02.682Z,1.30
2022-08-09T16:26:33.657Z,1.38
2022-08-09T16:29:10.487Z,1.70
2022-08-09T16:32:19.170Z,1.50
2022-08-09T16:34:26.575Z,1.30
2022-08-09T16:39:25.946Z,1.50
2022-08-09T16:42:04.277Z,1.42
2022-08-09T16:44:32.369Z,1.38
2022-08-09T16:47:04.059Z,1.35
2022-08-09T16:50:29.464Z,1.30
2022-08-09T16:52:34.727Z,1.45
2022-08-09T16:55:02.493Z,1.45
2022-08-09T16:58:08.032Z,1.55
2022-08-09T17:00:18.091Z,1.40
2022-08-09T17:02:46.289Z,1.40
2022-08-09T17:05:14.023Z,1.50
2022-08-09T17:08:45.939Z,1.50
2022-08-09T17:10:34.291Z,1.55
2022-08-09T17:13:03.638Z,1.23
2022-08-09T17:15:58.834Z,1.50
2022-08-09T17:18:26.802Z,1.70
2022-08-09T17:20:57.035Z,1.58
2022-08-09T17:24:21.348Z,1.80
2022-08-09T17:26:11.248Z,2.45
2022-08-09T17:28:39.534Z,3.38
2022-08-09T17:31:06.637Z,2.50
2022-08-09T17:33:36.043Z,2.10
2022-08-09T17:38:38.702Z,1.20
2022-08-09T17:41:06.685Z,1.90
2022-08-09T17:43:37.664Z,1.60
2022-08-09T17:46:07.564Z,1.75
2022-08-09T17:48:39.385Z,1.30
2022-08-09T17:51:09.738Z,1.35
2022-08-09T17:53:51.933Z,1.30
2022-08-09T17:56:27.193Z,1.80
2022-08-09T17:58:56.194Z,1.50
2022-08-09T18:01:23.916Z,1.67
2022-08-09T18:03:54.380Z,1.80
2022-08-09T18:06:31.301Z,1.60
2022-08-09T18:09:03.087Z,1.58
2022-08-09T18:12:05.727Z,1.42
2022-08-09T18:14:19.906Z,1.83
2022-08-09T18:16:48.779Z,1.70
2022-08-09T18:20:57.360Z,1.60
2022-08-09T18:22:04.158Z,1.50
2022-08-09T18:24:38.050Z,1.60
2022-08-09T18:27:06.785Z,1.83
2022-08-09T18:30:39.574Z,2.17
2022-08-09T18:32:22.027Z,2.45
2022-08-09T18:34:49.327Z,2.63
2022-08-09T18:37:49.171Z,3.72
2022-08-09T18:40:03.592Z,2.42
2022-08-09T18:42:30.859Z,1.88
2022-08-09T18:45:01.016Z,2.20
2022-08-09T18:47:37.062Z,1.90
2022-08-09T18:50:06.192Z,2.03
2022-08-09T18:52:38.958Z,2.33
2022-08-09T18:55:06.389Z,2.45
2022-08-09T18:57:44.532Z,1.85
2022-08-09T19:00:19.147Z,2.05
2022-08-09T19:02:47.762Z,2.85
2022-08-09T19:05:28.745Z,2.47
2022-08-09T19:08:10.260Z,2.00
2022-08-09T19:10:41.198Z,2.35
2022-08-09T19:13:20.789Z,2.28
2022-08-09T19:15:51.074Z,4.82
2022-08-09T19:18:32.874Z,2.20
2022-08-09T19:21:02.428Z,2.17
2022-08-09T19:24:36.191Z,2.03
2022-08-09T19:26:16.851Z,2.10
2022-08-09T19:28:48.826Z,1.75
2022-08-09T19:31:16.795Z,1.92
2022-08-09T19:33:44.091Z,1.85
2022-08-09T19:36:13.506Z,2.08
2022-08-09T19:38:40.849Z,2.00
2022-08-09T19:41:10.231Z,2.20
2022-08-09T19:44:00.302Z,2.60
2022-08-09T19:46:33.946Z,2.55
2022-08-09T19:50:09.025Z,2.30
2022-08-09T19:51:55.240Z,2.72
2022-08-09T19:54:26.460Z,2.78
2022-08-09T19:56:54.100Z,2.58
2022-08-09T19:59:57.452Z,2.53
2022-08-09T20:02:18.131Z,2.30
2022-08-09T20:04:59.389Z,2.25
2022-08-09T20:07:33.822Z,2.40
2022-08-09T20:10:17.896Z,2.60
2022-08-09T20:12:49.624Z,2.33
2022-08-09T20:16:38.148Z,3.63
2022-08-09T20:18:07.412Z,2.42
2022-08-09T20:20:35.772Z,2.47
2022-08-09T20:23:04.848Z,2.40
2022-08-09T20:25:38.141Z,2.45
2022-08-09T20:28:27.542Z,2.47
2022-08-09T20:31:04.556Z,2.60
2022-08-09T20:33:39.278Z,2.53
2022-08-09T20:36:11.328Z,2.50
2022-08-09T20:39:02.690Z,2.28
2022-08-09T20:41:35.257Z,5.43
2022-08-09T20:44:05.076Z,2.30
2022-08-09T20:46:42.692Z,2.10
2022-08-09T20:49:12.045Z,2.55
2022-08-09T20:51:41.716Z,2.45
2022-08-09T20:54:10.577Z,2.10
2022-08-09T20:56:41.090Z,2.00
2022-08-09T20:59:08.273Z,2.05
2022-08-09T21:01:49.818Z,2.40
2022-08-09T21:05:54.279Z,2.00
2022-08-09T21:07:12.375Z,2.38
2022-08-09T21:09:56.199Z,2.10
2022-08-09T21:15:17.184Z,2.50
2022-08-09T21:18:22.510Z,2.20
2022-08-09T21:20:37.581Z,2.10
2022-08-09T21:23:09.178Z,2.10
2022-08-09T21:25:55.255Z,2.20
2022-08-09T21:28:35.075Z,2.30
2022-08-09T21:31:16.417Z,2.42
2022-08-09T21:33:45.558Z,2.40
2022-08-09T21:36:18.268Z,2.33
2022-08-09T21:38:56.765Z,2.30
2022-08-09T21:42:04.436Z,2.70
2022-08-09T21:44:33.356Z,2.30
2022-08-09T21:47:00.170Z,2.47
2022-08-09T21:49:28.862Z,2.20
2022-08-09T21:52:07.939Z,2.40
2022-08-09T21:54:46.111Z,2.40
2022-08-09T21:57:37.246Z,2.45
2022-08-09T22:00:00.601Z,2.35
2022-08-09T22:02:35.958Z,2.47
2022-08-09T22:05:17.099Z,2.30
2022-08-09T22:07:52.054Z,2.55
2022-08-09T22:10:23.241Z,2.35
2022-08-09T22:12:51.311Z,2.90
2022-08-09T22:15:20.648Z,2.75
2022-08-09T22:17:50.722Z,2.90
2022-08-09T22:20:21.617Z,2.55
2022-08-09T22:22:54.589Z,2.42
2022-08-09T22:26:08.007Z,2.83
2022-08-09T22:28:08.736Z,3.67
2022-08-09T22:30:36.708Z,3.50
2022-08-09T22:33:09.477Z,3.30
2022-08-09T22:36:02.183Z,3.70
2022-08-09T22:38:24.055Z,2.90
2022-08-09T22:40:58.202Z,2.70
2022-08-09T22:44:03.196Z,3.03
2022-08-09T22:48:14.689Z,2.70
2022-08-09T22:49:01.927Z,2.72
2022-08-09T22:51:38.198Z,3.08
2022-08-09T22:54:08.202Z,2.92
2022-08-09T22:56:38.118Z,2.72
2022-08-09T22:59:56.383Z,3.05
2022-08-09T23:01:56.003Z,2.60
2022-08-09T23:04:23.316Z,2.60
2022-08-09T23:07:14.129Z,2.58
2022-08-09T23:09:43.384Z,2.55
2022-08-09T23:12:10.527Z,2.70
2022-08-09T23:14:41.938Z,2.70
2022-08-09T23:17:09.611Z,2.95
2022-08-09T23:20:03.489Z,2.88
2022-08-09T23:22:23.735Z,3.40
2022-08-09T23:24:50.841Z,3.30
2022-08-09T23:27:17.906Z,3.22
2022-08-09T23:29:44.972Z,2.95
2022-08-09T23:32:12.101Z,2.92
2022-08-09T23:34:39.184Z,2.80
2022-08-09T23:37:06.267Z,2.42
2022-08-09T23:39:33.391Z,2.70
2022-08-09T23:42:00.570Z,2.90
2022-08-09T23:44:27.796Z,2.60
2022-08-09T23:46:57.722Z,2.60
2022-08-09T23:49:25.478Z,2.50
2022-08-09T23:51:52.940Z,2.72
2022-08-09T23:54:20.004Z,2.63
2022-08-09T23:56:53.723Z,2.58
2022-08-09T23:59:22.481Z,2.55
